createdAt,value
2018-12-06T00:01:00.068Z,7.90
2018-12-06T00:03:27.510Z,7.70
2018-12-06T00:05:54.968Z,7.53
2018-12-06T00:08:22.427Z,7.07
2018-12-06T00:10:49.975Z,7.43
2018-12-06T00:13:17.452Z,7.63
2018-12-06T00:15:44.908Z,7.90
2018-12-06T00:18:12.407Z,7.07
2018-12-06T00:20:40.881Z,7.30
2018-12-06T00:23:08.328Z,7.57
2018-12-06T00:25:35.787Z,5.87
2018-12-06T00:28:03.249Z,7.80
2018-12-06T00:30:35.399Z,7.87
2018-12-06T00:33:03.655Z,7.97
2018-12-06T00:35:31.227Z,6.80
2018-12-06T00:37:58.695Z,7.80
2018-12-06T00:40:26.176Z,6.77
2018-12-06T00:42:53.634Z,6.37
2018-12-06T00:45:21.185Z,6.83
2018-12-06T00:47:48.624Z,7.10
2018-12-06T00:50:16.142Z,6.53
2018-12-06T00:52:43.603Z,7.83
2018-12-06T00:55:11.475Z,6.90
2018-12-06T00:57:38.959Z,7.23
2018-12-06T01:00:07.948Z,7.07
2018-12-06T01:02:35.396Z,8.47
2018-12-06T01:05:02.862Z,6.50
2018-12-06T01:07:30.336Z,7.40
2018-12-06T01:09:57.791Z,6.47
2018-12-06T01:12:25.328Z,7.23
2018-12-06T01:14:52.789Z,6.27
2018-12-06T01:17:20.305Z,6.73
2018-12-06T01:19:47.748Z,6.27
2018-12-06T01:22:15.212Z,6.40
2018-12-06T01:24:42.692Z,6.37
2018-12-06T01:27:10.144Z,6.23
2018-12-06T01:29:37.636Z,5.90
2018-12-06T01:32:06.198Z,7.77
2018-12-06T01:34:33.635Z,6.63
2018-12-06T01:37:01.076Z,6.07
2018-12-06T01:39:28.535Z,6.40
2018-12-06T01:41:56.011Z,6.33
2018-12-06T01:44:23.478Z,6.47
2018-12-06T01:46:51.012Z,6.60
2018-12-06T01:49:18.565Z,6.37
2018-12-06T01:51:46.032Z,6.53
2018-12-06T01:54:13.514Z,6.67
2018-12-06T01:56:40.990Z,5.87
2018-12-06T01:59:08.463Z,5.73
2018-12-06T02:01:35.927Z,6.43
2018-12-06T02:04:03.415Z,5.43
2018-12-06T02:06:30.919Z,5.63
2018-12-06T02:08:58.400Z,5.73
2018-12-06T02:11:25.865Z,6.13
2018-12-06T02:13:53.323Z,5.87
2018-12-06T02:16:20.780Z,5.43
2018-12-06T02:18:48.244Z,6.07
2018-12-06T02:21:15.720Z,6.10
2018-12-06T02:23:43.193Z,6.10
2018-12-06T02:26:10.651Z,5.87
2018-12-06T02:28:38.115Z,6.10
2018-12-06T02:31:05.588Z,6.10
2018-12-06T02:33:33.024Z,5.47
2018-12-06T02:36:00.665Z,5.87
2018-12-06T02:38:28.096Z,6.60
2018-12-06T02:40:55.559Z,5.23
2018-12-06T02:43:23.009Z,6.27
2018-12-06T02:45:50.535Z,6.00
2018-12-06T02:48:18.016Z,6.10
2018-12-06T02:50:45.483Z,6.80
2018-12-06T02:53:13.131Z,6.30
2018-12-06T02:55:40.600Z,6.23
2018-12-06T02:58:08.055Z,6.63
2018-12-06T03:00:35.508Z,5.43
2018-12-06T03:03:03.038Z,6.60
2018-12-06T03:05:30.600Z,6.23
2018-12-06T03:07:58.039Z,5.90
2018-12-06T03:10:25.512Z,5.80
2018-12-06T03:12:53.063Z,6.17
2018-12-06T03:15:20.542Z,6.27
2018-12-06T03:17:47.991Z,6.13
2018-12-06T03:20:15.445Z,5.83
2018-12-06T03:22:42.904Z,6.00
2018-12-06T03:25:10.367Z,6.50
2018-12-06T03:27:37.847Z,5.57
2018-12-06T03:30:05.791Z,6.60
2018-12-06T03:32:33.277Z,6.13
2018-12-06T03:35:00.833Z,6.07
2018-12-06T03:37:28.399Z,5.40
2018-12-06T03:39:55.913Z,6.30
2018-12-06T03:42:23.488Z,6.30
2018-12-06T03:44:50.976Z,6.10
2018-12-06T03:47:18.440Z,6.30
2018-12-06T03:49:45.888Z,5.70
2018-12-06T03:52:13.390Z,6.27
2018-12-06T03:54:40.860Z,5.50
2018-12-06T03:57:08.399Z,5.97
2018-12-06T03:59:35.856Z,6.20
2018-12-06T04:02:03.335Z,6.47
2018-12-06T04:04:30.798Z,6.70
2018-12-06T04:06:58.276Z,6.40
2018-12-06T04:09:25.743Z,6.70
2018-12-06T04:11:53.206Z,6.13
2018-12-06T04:14:20.652Z,6.77
2018-12-06T04:16:48.131Z,6.10
2018-12-06T04:19:15.698Z,6.77
2018-12-06T04:21:43.213Z,7.00
2018-12-06T04:24:10.755Z,6.33
2018-12-06T04:26:38.192Z,6.60
2018-12-06T04:29:05.639Z,6.80
2018-12-06T04:31:35.004Z,7.03
2018-12-06T04:34:02.449Z,6.77
2018-12-06T04:36:29.955Z,6.97
2018-12-06T04:38:57.482Z,6.77
2018-12-06T04:41:24.932Z,6.83
2018-12-06T04:43:52.415Z,6.43
2018-12-06T04:46:19.875Z,6.70
2018-12-06T04:48:47.344Z,6.93
2018-12-06T04:51:14.803Z,6.57
2018-12-06T04:53:42.270Z,7.33
2018-12-06T04:56:09.734Z,7.10
2018-12-06T04:58:37.188Z,7.30
2018-12-06T05:01:04.648Z,7.33
2018-12-06T05:03:32.159Z,8.03
2018-12-06T05:05:59.647Z,7.20
2018-12-06T05:08:27.153Z,6.83
2018-12-06T05:10:54.676Z,7.20
2018-12-06T05:13:22.132Z,11.83
2018-12-06T05:15:49.584Z,8.47
2018-12-06T05:18:17.056Z,7.73
2018-12-06T05:20:44.508Z,6.90
2018-12-06T05:23:11.996Z,6.90
2018-12-06T05:25:39.535Z,7.20
2018-12-06T05:28:06.984Z,7.30
2018-12-06T05:33:08.309Z,7.27
2018-12-06T05:35:35.750Z,7.83
2018-12-06T05:38:03.223Z,8.00
2018-12-06T05:40:30.677Z,7.57
2018-12-06T05:42:58.140Z,7.73
2018-12-06T05:45:25.604Z,8.00
2018-12-06T05:47:53.078Z,7.43
2018-12-06T05:50:20.545Z,7.37
2018-12-06T05:52:48.008Z,7.60
2018-12-06T05:55:15.983Z,7.73
2018-12-06T05:57:43.460Z,7.60
2018-12-06T06:00:10.927Z,8.10
2018-12-06T06:02:38.388Z,7.87
2018-12-06T06:05:05.959Z,7.80
2018-12-06T06:07:33.424Z,7.70
2018-12-06T06:10:00.867Z,8.53
2018-12-06T06:12:28.408Z,8.63
2018-12-06T06:14:55.863Z,7.80
2018-12-06T06:17:23.332Z,8.30
2018-12-06T06:19:50.798Z,8.07
2018-12-06T06:22:18.241Z,8.33
2018-12-06T06:24:45.695Z,9.00
2018-12-06T06:27:13.167Z,8.00
2018-12-06T06:29:40.623Z,8.53
2018-12-06T06:32:08.161Z,9.00
2018-12-06T06:34:35.824Z,9.20
2018-12-06T06:37:03.311Z,8.80
2018-12-06T06:39:30.771Z,9.37
2018-12-06T06:41:58.228Z,9.07
2018-12-06T06:44:25.764Z,9.17
2018-12-06T06:46:53.216Z,8.70
2018-12-06T06:49:20.664Z,9.17
2018-12-06T06:51:48.128Z,10.20
2018-12-06T06:54:15.602Z,9.20
2018-12-06T06:56:43.079Z,10.10
2018-12-06T06:59:10.595Z,9.47
2018-12-06T07:01:38.117Z,8.97
2018-12-06T07:04:05.663Z,8.87
2018-12-06T07:06:33.134Z,9.83
2018-12-06T07:09:00.592Z,9.90
2018-12-06T07:11:28.033Z,10.00
2018-12-06T07:13:55.591Z,10.10
2018-12-06T07:16:23.060Z,10.13
2018-12-06T07:18:50.550Z,10.97
2018-12-06T07:21:18.031Z,11.33
2018-12-06T07:23:45.516Z,10.60
2018-12-06T07:26:12.984Z,11.97
2018-12-06T07:28:40.488Z,12.50
2018-12-06T07:31:07.971Z,11.27
2018-12-06T07:33:35.476Z,12.53
2018-12-06T07:36:02.983Z,13.63
2018-12-06T07:38:30.445Z,12.67
2018-12-06T07:40:57.925Z,12.03
2018-12-06T07:43:25.374Z,14.23
2018-12-06T07:45:54.839Z,13.07
2018-12-06T07:48:22.305Z,13.27
2018-12-06T07:50:49.779Z,13.77
2018-12-06T07:53:17.279Z,13.87
2018-12-06T07:55:44.731Z,14.57
2018-12-06T07:58:12.221Z,14.43
2018-12-06T08:00:39.680Z,15.57
2018-12-06T08:03:07.168Z,15.70
2018-12-06T08:05:34.619Z,15.93
2018-12-06T08:10:36.103Z,15.60
2018-12-06T08:13:03.571Z,15.80
2018-12-06T08:15:31.051Z,15.97
2018-12-06T08:17:58.608Z,14.87
2018-12-06T08:20:26.066Z,16.70
2018-12-06T08:22:53.524Z,14.17
2018-12-06T08:25:20.971Z,14.70
2018-12-06T08:27:48.411Z,14.00
2018-12-06T08:30:15.889Z,14.43
2018-12-06T08:32:43.339Z,13.83
2018-12-06T08:35:10.852Z,14.17
2018-12-06T08:37:38.283Z,14.73
2018-12-06T08:40:07.504Z,14.70
2018-12-06T08:42:35.047Z,15.30
2018-12-06T08:45:02.515Z,14.70
2018-12-06T08:47:29.988Z,16.00
2018-12-06T08:49:57.872Z,15.93
2018-12-06T08:52:25.392Z,16.73
2018-12-06T08:54:52.842Z,17.83
2018-12-06T08:57:20.412Z,18.20
2018-12-06T08:59:47.847Z,17.50
2018-12-06T09:02:15.307Z,18.93
2018-12-06T09:04:42.756Z,18.30
2018-12-06T09:07:10.215Z,18.57
2018-12-06T09:09:37.672Z,19.87
2018-12-06T09:12:05.200Z,19.73
2018-12-06T09:14:32.676Z,20.67
2018-12-06T09:17:00.123Z,19.47
2018-12-06T09:19:27.588Z,20.07
2018-12-06T09:21:55.043Z,18.60
2018-12-06T09:24:22.532Z,18.33
2018-12-06T09:26:50.116Z,18.57
2018-12-06T09:29:17.561Z,18.80
2018-12-06T09:31:45.077Z,18.77
2018-12-06T09:34:12.604Z,18.73
2018-12-06T09:36:40.067Z,19.10
2018-12-06T09:39:07.643Z,19.23
2018-12-06T09:41:35.111Z,19.57
2018-12-06T09:44:02.617Z,19.23
2018-12-06T09:46:32.020Z,20.47
2018-12-06T09:48:59.479Z,19.50
2018-12-06T09:51:27.129Z,20.63
2018-12-06T09:53:54.603Z,19.23
2018-12-06T09:56:22.060Z,20.63
2018-12-06T09:58:49.515Z,20.60
2018-12-06T10:01:16.971Z,21.33
2018-12-06T10:03:44.416Z,21.43
2018-12-06T10:06:12.010Z,22.60
2018-12-06T10:08:39.547Z,22.00
2018-12-06T10:11:06.988Z,23.03
2018-12-06T10:13:34.482Z,22.50
2018-12-06T10:16:01.965Z,24.23
2018-12-06T10:18:29.526Z,25.33
2018-12-06T10:20:57.007Z,25.93
2018-12-06T10:23:24.510Z,25.40
2018-12-06T10:25:52.057Z,25.37
2018-12-06T10:28:19.546Z,27.70
2018-12-06T10:30:47.215Z,26.63
2018-12-06T10:33:15.694Z,26.53
2018-12-06T10:35:43.148Z,25.73
2018-12-06T10:38:10.628Z,28.20
2018-12-06T10:40:38.312Z,26.37
2018-12-06T10:43:05.799Z,26.93
2018-12-06T10:45:33.263Z,25.97
2018-12-06T10:48:00.716Z,26.40
2018-12-06T10:50:28.195Z,26.37
2018-12-06T10:52:55.647Z,26.20
2018-12-06T10:55:23.100Z,28.37
2018-12-06T10:57:50.551Z,26.37
2018-12-06T11:00:23.748Z,27.80
2018-12-06T11:02:53.110Z,26.80
2018-12-06T11:05:20.564Z,28.53
2018-12-06T11:07:48.031Z,26.80
2018-12-06T11:10:15.492Z,26.80
2018-12-06T11:12:42.979Z,26.77
2018-12-06T11:15:21.925Z,27.63
2018-12-06T11:17:49.537Z,27.57
2018-12-06T11:20:16.996Z,26.27
2018-12-06T11:22:44.536Z,26.80
2018-12-06T11:25:12.081Z,27.20
2018-12-06T11:27:39.623Z,28.37
2018-12-06T11:30:07.303Z,29.03
2018-12-06T11:32:34.760Z,28.43
2018-12-06T11:35:02.232Z,28.40
2018-12-06T11:37:29.684Z,27.40
2018-12-06T11:39:57.144Z,28.70
2018-12-06T11:42:24.804Z,29.27
2018-12-06T11:44:52.275Z,28.37
2018-12-06T11:47:19.728Z,28.17
2018-12-06T11:49:47.195Z,27.23
2018-12-06T11:52:14.640Z,27.43
2018-12-06T11:54:42.091Z,28.40
2018-12-06T11:57:09.548Z,28.00
2018-12-06T11:59:37.019Z,26.27
2018-12-06T12:02:09.953Z,26.80
2018-12-06T12:04:33.943Z,28.23
2018-12-06T12:07:01.483Z,26.40
2018-12-06T12:09:29.625Z,26.60
2018-12-06T12:11:57.099Z,26.90
2018-12-06T12:14:24.567Z,27.80
2018-12-06T12:16:52.016Z,24.37
2018-12-06T12:19:19.480Z,23.83
2018-12-06T12:21:46.952Z,24.83
2018-12-06T12:24:14.399Z,25.07
2018-12-06T12:26:41.856Z,24.53
2018-12-06T12:29:09.436Z,24.57
2018-12-06T12:31:36.960Z,23.43
2018-12-06T12:34:05.149Z,23.97
2018-12-06T12:36:32.647Z,24.07
2018-12-06T12:39:00.107Z,24.93
2018-12-06T12:41:27.559Z,23.97
2018-12-06T12:43:55.029Z,23.27
2018-12-06T12:46:22.496Z,24.70
2018-12-06T12:48:49.958Z,26.07
2018-12-06T12:51:17.419Z,27.80
2018-12-06T12:53:44.864Z,26.80
2018-12-06T12:56:12.327Z,26.67
2018-12-06T12:58:39.922Z,25.40
2018-12-06T13:01:07.529Z,25.07
2018-12-06T13:03:35.108Z,25.90
2018-12-06T13:06:02.602Z,24.70
2018-12-06T13:08:30.852Z,25.23
2018-12-06T13:10:58.328Z,26.43
2018-12-06T13:13:25.844Z,26.37
2018-12-06T13:15:53.366Z,25.97
2018-12-06T13:18:22.447Z,26.30
2018-12-06T13:20:50.189Z,25.60
2018-12-06T13:23:17.771Z,24.87
2018-12-06T13:25:45.235Z,25.47
2018-12-06T13:28:13.388Z,25.80
2018-12-06T13:30:40.888Z,24.80
2018-12-06T13:33:08.444Z,24.50
2018-12-06T13:35:36.135Z,25.17
2018-12-06T13:38:03.673Z,23.67
2018-12-06T13:40:31.232Z,23.27
2018-12-06T13:42:59.861Z,23.53
2018-12-06T13:45:27.339Z,24.23
2018-12-06T13:47:54.837Z,24.33
2018-12-06T13:50:22.412Z,24.70
2018-12-06T13:52:49.941Z,24.00
2018-12-06T13:55:17.454Z,25.00
2018-12-06T13:57:45.196Z,25.17
2018-12-06T14:00:12.794Z,25.63
2018-12-06T14:02:40.331Z,25.60
2018-12-06T14:05:08.064Z,25.80
2018-12-06T14:07:35.560Z,26.53
2018-12-06T14:10:03.379Z,25.70
2018-12-06T14:12:31.496Z,28.93
2018-12-06T14:14:59.021Z,28.20
2018-12-06T14:17:26.444Z,26.70
2018-12-06T14:19:54.019Z,25.83
2018-12-06T14:22:21.467Z,9.37
2018-12-06T14:24:48.924Z,26.50
2018-12-06T14:27:16.392Z,25.80
2018-12-06T14:29:43.885Z,26.83
2018-12-06T14:32:11.363Z,25.43
2018-12-06T14:34:38.976Z,24.07
2018-12-06T14:37:06.440Z,11.37
2018-12-06T14:39:33.985Z,24.27
2018-12-06T14:42:01.489Z,22.13
2018-12-06T14:44:29.043Z,25.33
2018-12-06T14:46:56.531Z,24.60
2018-12-06T14:49:24.024Z,26.40
2018-12-06T14:51:51.540Z,15.17
2018-12-06T14:54:19.155Z,19.13
2018-12-06T14:56:46.610Z,26.93
2018-12-06T14:59:14.101Z,26.30
2018-12-06T15:01:41.651Z,27.67
2018-12-06T15:04:09.184Z,25.07
2018-12-06T15:06:37.790Z,27.03
2018-12-06T15:09:07.370Z,26.47
2018-12-06T15:11:34.849Z,26.87
2018-12-06T15:14:02.579Z,27.03
2018-12-06T15:16:30.137Z,28.47
2018-12-06T15:18:57.800Z,27.17
2018-12-06T15:21:25.318Z,28.73
2018-12-06T15:23:52.852Z,28.90
2018-12-06T15:26:20.399Z,28.03
2018-12-06T15:28:47.957Z,30.03
2018-12-06T15:31:15.446Z,27.83
2018-12-06T15:33:43.443Z,27.40
2018-12-06T15:36:10.978Z,28.77
2018-12-06T15:38:38.501Z,29.30
2018-12-06T15:41:06.004Z,29.40
2018-12-06T15:43:34.381Z,29.13
2018-12-06T15:46:02.040Z,27.60
2018-12-06T15:48:29.638Z,28.47
2018-12-06T15:50:57.277Z,29.37
2018-12-06T15:53:24.848Z,28.93
2018-12-06T15:55:53.223Z,26.97
2018-12-06T15:58:20.894Z,25.70
2018-12-06T16:00:48.437Z,26.23
2018-12-06T16:03:16.078Z,24.93
2018-12-06T16:05:44.366Z,25.33
2018-12-06T16:08:12.020Z,25.93
2018-12-06T16:10:39.562Z,25.40
2018-12-06T16:13:07.133Z,25.30
2018-12-06T16:15:35.351Z,25.20
2018-12-06T16:18:02.964Z,24.90
2018-12-06T16:20:30.512Z,24.23
2018-12-06T16:22:58.530Z,23.33
2018-12-06T16:25:26.086Z,24.47
2018-12-06T16:27:53.657Z,24.20
2018-12-06T16:30:21.183Z,23.70
2018-12-06T16:32:48.744Z,23.80
2018-12-06T16:35:16.266Z,24.13
2018-12-06T16:37:43.840Z,23.67
2018-12-06T16:40:11.505Z,24.23
2018-12-06T16:42:39.038Z,24.63
2018-12-06T16:45:06.635Z,25.97
2018-12-06T16:47:34.182Z,26.73
2018-12-06T16:50:01.758Z,21.63
2018-12-06T16:52:29.322Z,25.90
2018-12-06T16:54:56.797Z,25.27
2018-12-06T16:57:24.256Z,24.03
2018-12-06T16:59:51.824Z,23.57
2018-12-06T17:02:19.320Z,23.53
2018-12-06T17:04:46.779Z,23.43
2018-12-06T17:07:14.252Z,20.83
2018-12-06T17:09:41.748Z,21.53
2018-12-06T17:12:10.509Z,21.40
2018-12-06T17:14:37.984Z,21.90
2018-12-06T17:17:05.462Z,21.67
2018-12-06T17:19:32.994Z,20.73
2018-12-06T17:22:00.460Z,20.30
2018-12-06T17:24:28.048Z,21.70
2018-12-06T17:26:55.536Z,21.27
2018-12-06T17:29:23.052Z,20.17
2018-12-06T17:31:50.920Z,19.50
2018-12-06T17:34:20.554Z,20.07
2018-12-06T17:36:48.575Z,20.00
2018-12-06T17:39:16.076Z,19.73
2018-12-06T17:41:43.580Z,21.47
2018-12-06T17:44:11.081Z,19.17
2018-12-06T17:46:38.633Z,19.80
2018-12-06T17:49:06.103Z,20.33
2018-12-06T17:51:33.598Z,20.80
2018-12-06T17:54:01.075Z,19.70
2018-12-06T17:56:28.658Z,19.73
2018-12-06T17:58:56.130Z,21.80
2018-12-06T18:01:25.149Z,21.43
2018-12-06T18:03:52.593Z,21.70
2018-12-06T18:06:20.153Z,18.57
2018-12-06T18:08:47.636Z,24.20
2018-12-06T18:11:17.100Z,23.23
2018-12-06T18:13:44.853Z,23.20
2018-12-06T18:16:19.279Z,24.33
2018-12-06T18:18:41.896Z,25.47
2018-12-06T18:21:09.382Z,24.43
2018-12-06T18:23:37.018Z,25.83
2018-12-06T18:26:04.558Z,25.77
2018-12-06T18:28:32.030Z,26.27
2018-12-06T18:30:59.553Z,26.23
2018-12-06T18:33:27.232Z,27.97
2018-12-06T18:35:55.860Z,26.57
2018-12-06T18:38:23.409Z,27.40
2018-12-06T18:40:51.576Z,26.57
2018-12-06T18:43:19.620Z,28.10
2018-12-06T18:45:47.247Z,27.60
2018-12-06T18:48:14.784Z,28.70
2018-12-06T18:50:42.316Z,29.93
2018-12-06T18:53:09.788Z,29.20
2018-12-06T18:55:37.312Z,30.07
2018-12-06T18:58:04.868Z,29.77
2018-12-06T19:00:33.167Z,30.80
2018-12-06T19:03:00.781Z,32.23
2018-12-06T19:05:28.268Z,31.87
2018-12-06T19:07:55.729Z,32.40
2018-12-06T19:10:59.253Z,31.53
2018-12-06T19:13:26.834Z,33.03
2018-12-06T19:15:54.315Z,33.00
2018-12-06T19:18:21.824Z,32.23
2018-12-06T19:20:49.318Z,31.83
2018-12-06T19:23:16.896Z,32.90
2018-12-06T19:25:44.404Z,32.57
2018-12-06T19:28:11.906Z,32.57
2018-12-06T19:30:39.376Z,33.67
2018-12-06T19:33:06.995Z,33.53
2018-12-06T19:35:34.507Z,33.13
2018-12-06T19:38:03.203Z,31.33
2018-12-06T19:40:30.658Z,30.17
2018-12-06T19:42:58.132Z,31.23
2018-12-06T19:45:25.792Z,31.10
2018-12-06T19:47:53.507Z,29.23
2018-12-06T19:50:21.041Z,29.63
2018-12-06T19:52:48.569Z,30.47
2018-12-06T19:55:16.087Z,27.17
2018-12-06T19:57:44.643Z,28.20
2018-12-06T20:00:12.329Z,24.03
2018-12-06T20:02:41.112Z,25.10
2018-12-06T20:05:08.576Z,26.83
2018-12-06T20:07:36.092Z,24.40
2018-12-06T20:10:05.409Z,26.43
2018-12-06T20:12:32.996Z,27.83
2018-12-06T20:15:00.463Z,27.60
2018-12-06T20:17:27.922Z,28.43
2018-12-06T20:19:55.420Z,27.90
2018-12-06T20:22:22.892Z,27.03
2018-12-06T20:24:50.348Z,28.87
2018-12-06T20:27:19.112Z,29.40
2018-12-06T20:29:46.616Z,28.50
2018-12-06T20:32:14.936Z,29.47
2018-12-06T20:34:42.676Z,30.47
2018-12-06T20:37:10.521Z,29.30
2018-12-06T20:39:38.096Z,31.40
2018-12-06T20:42:05.710Z,28.70
2018-12-06T20:44:33.217Z,28.73
2018-12-06T20:47:00.692Z,28.80
2018-12-06T20:49:28.158Z,28.87
2018-12-06T20:51:55.780Z,30.33
2018-12-06T20:54:23.236Z,30.33
2018-12-06T20:56:50.713Z,30.00
2018-12-06T20:59:18.203Z,28.73
2018-12-06T21:01:45.691Z,30.80
2018-12-06T21:04:13.758Z,28.90
2018-12-06T21:06:41.416Z,28.30
2018-12-06T21:09:08.944Z,29.40
2018-12-06T21:11:36.446Z,28.63
2018-12-06T21:14:03.921Z,29.70
2018-12-06T21:16:31.394Z,30.70
2018-12-06T21:18:58.852Z,28.33
2018-12-06T21:21:26.311Z,29.20
2018-12-06T21:23:53.804Z,29.17
2018-12-06T21:26:21.343Z,29.67
2018-12-06T21:28:48.812Z,29.00
2018-12-06T21:31:16.293Z,27.47
2018-12-06T21:33:43.758Z,29.70
2018-12-06T21:36:11.215Z,30.40
2018-12-06T21:38:38.679Z,30.63
2018-12-06T21:41:06.127Z,30.47
2018-12-06T21:43:33.595Z,31.33
2018-12-06T21:46:01.119Z,31.33
2018-12-06T21:48:28.642Z,31.30
2018-12-06T21:50:56.078Z,31.37
2018-12-06T21:53:23.814Z,30.83
2018-12-06T21:55:51.389Z,32.73
2018-12-06T21:58:18.895Z,30.77
2018-12-06T22:00:46.349Z,33.37
2018-12-06T22:03:13.804Z,33.67
2018-12-06T22:05:41.272Z,33.00
2018-12-06T22:08:08.731Z,32.37
2018-12-06T22:10:36.228Z,34.47
2018-12-06T22:13:03.706Z,32.00
2018-12-06T22:15:31.601Z,31.70
2018-12-06T22:17:59.083Z,31.90
2018-12-06T22:20:26.658Z,31.83
2018-12-06T22:22:54.116Z,32.13
2018-12-06T22:25:21.615Z,31.63
2018-12-06T22:27:49.080Z,31.47
2018-12-06T22:30:16.547Z,32.80
2018-12-06T22:32:44.003Z,33.03
2018-12-06T22:35:11.522Z,32.73
2018-12-06T22:37:38.982Z,32.37
2018-12-06T22:40:06.554Z,33.03
2018-12-06T22:42:34.011Z,32.03
2018-12-06T22:45:13.292Z,33.57
2018-12-06T22:47:40.736Z,33.00
2018-12-06T22:50:08.242Z,32.97
2018-12-06T22:52:35.804Z,32.70
2018-12-06T22:55:03.655Z,33.03
2018-12-06T22:57:31.125Z,31.53
2018-12-06T22:59:58.604Z,31.83
2018-12-06T23:02:26.089Z,32.87
2018-12-06T23:04:53.548Z,32.57
2018-12-06T23:07:21.026Z,32.87
2018-12-06T23:09:48.485Z,33.90
2018-12-06T23:12:15.939Z,33.07
2018-12-06T23:14:43.404Z,33.67
2018-12-06T23:17:10.864Z,34.10
2018-12-06T23:19:38.348Z,33.80
2018-12-06T23:22:05.820Z,32.47
2018-12-06T23:24:33.284Z,32.53
2018-12-06T23:27:00.748Z,33.33
2018-12-06T23:29:28.224Z,31.97
2018-12-06T23:31:55.698Z,34.10
2018-12-06T23:34:23.148Z,33.73
2018-12-06T23:36:50.627Z,32.97
2018-12-06T23:39:18.076Z,34.07
2018-12-06T23:41:45.525Z,34.30
2018-12-06T23:44:13.012Z,35.17
2018-12-06T23:46:40.447Z,33.37
2018-12-06T23:49:07.922Z,32.77
2018-12-06T23:51:36.789Z,33.27
2018-12-06T23:54:04.308Z,33.43
2018-12-06T23:56:31.767Z,33.00
2018-12-06T23:58:59.248Z,32.73
